createdAt,value
2022-09-28T00:01:19.152Z,88.29
2022-09-28T00:03:49.481Z,88.21
2022-09-28T00:06:22.224Z,88.25
2022-09-28T00:08:50.433Z,88.64
2022-09-28T00:11:20.652Z,88.49
2022-09-28T00:13:51.746Z,88.96
2022-09-28T00:16:25.585Z,89.14
2022-09-28T00:18:54.102Z,88.97
2022-09-28T00:21:25.534Z,89.48
2022-09-28T00:24:15.030Z,89.72
2022-09-28T00:26:54.345Z,89.68
2022-09-28T00:29:27.005Z,90.03
2022-09-28T00:32:02.477Z,90.11
2022-09-28T00:34:38.154Z,90.31
2022-09-28T00:37:08.784Z,90.31
2022-09-28T00:39:38.693Z,90.27
2022-09-28T00:42:18.094Z,90.74
2022-09-28T00:44:54.737Z,90.47
2022-09-28T00:47:54.854Z,90.16
2022-09-28T00:50:34.298Z,90.18
2022-09-28T00:53:21.586Z,90.08
2022-09-28T00:55:57.316Z,90.67
2022-09-28T00:58:31.992Z,90.67
2022-09-28T01:01:00.242Z,90.56
2022-09-28T01:03:29.119Z,90.66
2022-09-28T01:06:02.206Z,90.63
2022-09-28T01:08:34.046Z,90.33
2022-09-28T01:11:02.256Z,90.46
2022-09-28T01:13:41.414Z,90.61
2022-09-28T01:16:38.326Z,90.73
2022-09-28T01:19:59.928Z,91.03
2022-09-28T01:22:41.945Z,91.14
2022-09-28T01:25:50.848Z,91.13
2022-09-28T01:28:23.737Z,91.15
2022-09-28T01:31:09.674Z,90.96
2022-09-28T01:33:51.143Z,91.00
2022-09-28T01:36:27.823Z,90.94
2022-09-28T01:39:07.977Z,91.36
2022-09-28T01:41:40.214Z,91.30
2022-09-28T01:44:16.822Z,91.37
2022-09-28T01:46:49.089Z,91.34
2022-09-28T01:49:27.917Z,91.60
2022-09-28T01:52:04.219Z,91.58
2022-09-28T01:54:40.438Z,92.00
2022-09-28T01:57:18.679Z,91.79
2022-09-28T02:00:01.158Z,91.73
2022-09-28T02:02:37.753Z,92.20
2022-09-28T02:05:15.269Z,92.60
2022-09-28T02:07:51.349Z,92.79
2022-09-28T02:10:29.053Z,92.88
2022-09-28T02:13:04.845Z,92.27
2022-09-28T02:15:56.841Z,91.90
2022-09-28T02:18:25.472Z,91.51
2022-09-28T02:21:06.851Z,91.93
2022-09-28T02:23:39.557Z,92.41
2022-09-28T02:26:13.953Z,92.24
2022-09-28T02:28:41.775Z,91.65
2022-09-28T02:31:09.710Z,91.92
2022-09-28T02:33:42.012Z,92.74
2022-09-28T02:36:10.838Z,92.72
2022-09-28T02:38:39.439Z,92.51
2022-09-28T02:41:38.440Z,92.23
2022-09-28T02:44:42.249Z,93.07
2022-09-28T02:47:49.043Z,93.00
2022-09-28T02:50:43.086Z,92.80
2022-09-28T02:53:32.568Z,92.69
2022-09-28T02:56:47.451Z,92.89
2022-09-28T02:59:36.484Z,93.21
2022-09-28T03:02:25.888Z,93.60
2022-09-28T03:05:26.720Z,92.24
2022-09-28T03:08:01.865Z,92.84
2022-09-28T03:10:44.222Z,92.76
2022-09-28T03:13:13.793Z,92.91
2022-09-28T03:15:46.408Z,92.71
2022-09-28T03:18:16.892Z,93.15
2022-09-28T03:20:48.805Z,92.84
2022-09-28T03:23:24.789Z,92.15
2022-09-28T03:25:53.319Z,92.09
2022-09-28T03:28:21.968Z,92.37
2022-09-28T03:30:50.198Z,92.16
2022-09-28T03:33:19.744Z,92.36
2022-09-28T03:35:51.312Z,92.22
2022-09-28T03:38:19.588Z,92.01
2022-09-28T03:40:56.052Z,92.40
2022-09-28T03:43:25.898Z,92.51
2022-09-28T03:46:00.613Z,92.47
2022-09-28T03:48:34.053Z,92.50
2022-09-28T03:51:09.152Z,92.40
2022-09-28T03:53:37.576Z,92.28
2022-09-28T03:56:09.006Z,92.30
2022-09-28T03:58:36.773Z,92.58
2022-09-28T04:01:09.231Z,92.21
2022-09-28T04:03:39.913Z,91.76
2022-09-28T04:06:07.910Z,92.30
2022-09-28T04:08:36.402Z,92.41
2022-09-28T04:11:04.241Z,92.94
2022-09-28T04:13:32.089Z,92.73
2022-09-28T04:16:01.444Z,92.49
2022-09-28T04:18:33.556Z,92.57
2022-09-28T04:21:21.268Z,92.43
2022-09-28T04:23:53.147Z,92.71
2022-09-28T04:26:25.913Z,92.53
2022-09-28T04:29:13.312Z,92.27
2022-09-28T04:31:48.327Z,93.19
2022-09-28T04:34:20.644Z,94.02
2022-09-28T04:36:49.068Z,93.74
2022-09-28T04:39:19.492Z,93.18
2022-09-28T04:41:50.227Z,92.98
2022-09-28T04:44:18.294Z,93.42
2022-09-28T04:46:47.521Z,93.70
2022-09-28T04:49:37.100Z,93.58
2022-09-28T04:52:20.848Z,93.25
2022-09-28T04:54:50.202Z,93.35
2022-09-28T04:57:18.040Z,94.09
2022-09-28T04:59:45.781Z,94.20
2022-09-28T05:02:15.093Z,93.94
2022-09-28T05:05:01.926Z,94.25
2022-09-28T05:07:59.165Z,93.77
2022-09-28T05:10:26.855Z,93.52
2022-09-28T05:12:54.848Z,92.72
2022-09-28T05:15:22.658Z,93.16
2022-09-28T05:17:53.011Z,93.89
2022-09-28T05:20:25.984Z,93.90
2022-09-28T05:22:53.765Z,94.04
2022-09-28T05:25:21.609Z,94.71
2022-09-28T05:28:03.384Z,94.44
2022-09-28T05:31:09.300Z,94.57
2022-09-28T05:33:56.025Z,94.41
2022-09-28T05:36:27.381Z,94.10
2022-09-28T05:38:55.128Z,93.21
2022-09-28T05:41:22.918Z,92.47
2022-09-28T05:43:52.208Z,91.84
2022-09-28T05:46:21.832Z,91.63
2022-09-28T05:48:52.558Z,90.93
2022-09-28T05:51:21.141Z,90.43
2022-09-28T05:53:49.039Z,90.03
2022-09-28T05:56:17.613Z,90.04
2022-09-28T05:58:46.046Z,89.76
2022-09-28T06:01:14.870Z,89.46
2022-09-28T06:03:45.875Z,89.06
2022-09-28T06:06:13.595Z,88.86
2022-09-28T06:08:46.192Z,88.11
2022-09-28T06:11:33.390Z,87.76
2022-09-28T06:14:06.706Z,87.39
2022-09-28T06:16:35.047Z,87.57
2022-09-28T06:19:02.958Z,87.66
2022-09-28T06:21:39.598Z,87.31
2022-09-28T06:24:08.297Z,87.51
2022-09-28T06:26:37.366Z,87.84
2022-09-28T06:29:06.041Z,87.10
2022-09-28T06:31:34.103Z,86.51
2022-09-28T06:34:02.166Z,87.22
2022-09-28T06:36:31.342Z,87.38
2022-09-28T06:38:59.323Z,86.90
2022-09-28T06:41:27.474Z,87.22
2022-09-28T06:43:56.752Z,86.98
2022-09-28T06:46:43.346Z,86.84
2022-09-28T06:49:30.692Z,86.49
2022-09-28T06:52:18.354Z,86.23
2022-09-28T06:55:09.684Z,86.93
2022-09-28T06:57:43.591Z,87.36
2022-09-28T07:00:13.017Z,86.72
2022-09-28T07:02:42.622Z,85.95
2022-09-28T07:05:30.152Z,85.90
2022-09-28T07:08:28.685Z,85.61
2022-09-28T07:11:07.456Z,85.70
2022-09-28T07:14:03.225Z,85.35
2022-09-28T07:17:00.005Z,85.16
2022-09-28T07:19:20.188Z,84.83
2022-09-28T07:21:58.812Z,84.76
2022-09-28T07:24:30.457Z,84.39
2022-09-28T07:27:16.993Z,84.02
2022-09-28T07:29:56.836Z,83.89
2022-09-28T07:32:37.491Z,83.77
2022-09-28T07:35:20.324Z,83.72
2022-09-28T07:38:00.360Z,83.27
2022-09-28T07:40:48.408Z,82.74
2022-09-28T07:43:20.707Z,82.64
2022-09-28T07:45:53.926Z,80.76
2022-09-28T07:48:22.954Z,79.97
2022-09-28T07:51:10.265Z,78.59
2022-09-28T07:53:54.073Z,78.56
2022-09-28T07:56:45.691Z,78.16
2022-09-28T07:59:29.134Z,77.55
2022-09-28T08:02:28.892Z,77.35
2022-09-28T08:04:58.200Z,76.45
2022-09-28T08:07:27.591Z,75.69
2022-09-28T08:10:05.048Z,74.47
2022-09-28T08:13:04.750Z,74.31
2022-09-28T08:15:53.708Z,73.93
2022-09-28T08:18:41.760Z,73.41
2022-09-28T08:21:28.894Z,73.81
2022-09-28T08:23:56.795Z,74.01
2022-09-28T08:26:24.811Z,73.91
2022-09-28T08:28:53.137Z,73.99
2022-09-28T08:31:39.541Z,73.63
2022-09-28T08:34:30.614Z,72.84
2022-09-28T08:37:17.110Z,73.55
2022-09-28T08:40:04.770Z,72.37
2022-09-28T08:42:45.878Z,71.75
2022-09-28T08:45:28.358Z,71.33
2022-09-28T08:48:52.237Z,71.38
2022-09-28T08:51:54.260Z,70.64
2022-09-28T08:54:56.817Z,70.41
2022-09-28T08:57:45.109Z,71.19
2022-09-28T09:00:32.236Z,72.20
2022-09-28T09:03:06.424Z,72.48
2022-09-28T09:06:18.172Z,71.20
2022-09-28T09:09:23.005Z,71.19
2022-09-28T09:12:13.842Z,69.86
2022-09-28T09:15:22.173Z,70.53
2022-09-28T09:18:20.108Z,70.79
2022-09-28T09:21:04.665Z,69.59
2022-09-28T09:23:56.885Z,70.12
2022-09-28T09:26:46.611Z,69.26
2022-09-28T09:29:53.046Z,68.95
2022-09-28T09:33:24.069Z,69.78
2022-09-28T09:36:47.663Z,69.93
2022-09-28T09:40:09.430Z,67.11
2022-09-28T09:43:17.509Z,66.88
2022-09-28T09:46:19.308Z,67.99
2022-09-28T09:49:15.418Z,66.25
2022-09-28T09:51:58.989Z,65.48
2022-09-28T09:54:39.593Z,64.71
2022-09-28T09:57:15.178Z,64.58
2022-09-28T09:59:49.670Z,64.77
2022-09-28T10:02:39.427Z,65.33
2022-09-28T10:05:25.605Z,65.18
2022-09-28T10:08:08.653Z,64.61
2022-09-28T10:10:49.691Z,64.41
2022-09-28T10:13:19.249Z,64.36
2022-09-28T10:15:48.009Z,65.06
2022-09-28T10:18:35.752Z,64.70
2022-09-28T10:21:16.662Z,62.81
2022-09-28T10:23:58.333Z,62.24
2022-09-28T10:26:37.499Z,60.86
2022-09-28T10:29:15.088Z,59.73
2022-09-28T10:31:52.409Z,60.65
2022-09-28T10:34:35.578Z,60.99
2022-09-28T10:37:11.752Z,60.22
2022-09-28T10:40:35.385Z,61.73
2022-09-28T10:43:26.216Z,61.24
2022-09-28T10:46:21.690Z,60.74
2022-09-28T10:49:04.980Z,60.26
2022-09-28T10:51:52.074Z,60.20
2022-09-28T10:54:37.178Z,60.02
2022-09-28T10:57:28.668Z,58.94
2022-09-28T11:00:07.268Z,59.16
2022-09-28T11:02:44.231Z,57.74
2022-09-28T11:05:24.069Z,59.13
2022-09-28T11:07:56.913Z,57.32
2022-09-28T11:10:32.750Z,57.11
2022-09-28T11:13:09.934Z,56.93
2022-09-28T11:15:43.025Z,57.52
2022-09-28T11:18:24.208Z,58.39
2022-09-28T11:20:52.097Z,58.85
2022-09-28T11:23:31.750Z,59.80
2022-09-28T11:26:08.907Z,59.51
2022-09-28T11:28:41.295Z,59.54
2022-09-28T11:31:14.077Z,60.14
2022-09-28T11:34:57.497Z,60.12
2022-09-28T11:37:35.394Z,60.15
2022-09-28T11:40:28.672Z,60.77
2022-09-28T11:43:52.977Z,61.07
2022-09-28T11:46:45.498Z,61.42
2022-09-28T11:49:27.806Z,62.04
2022-09-28T11:52:02.468Z,63.40
2022-09-28T11:54:48.215Z,61.72
2022-09-28T11:57:23.861Z,62.21
2022-09-28T12:00:02.009Z,61.99
2022-09-28T12:02:42.860Z,62.01
2022-09-28T12:05:24.959Z,63.15
2022-09-28T12:08:04.462Z,62.10
2022-09-28T12:11:24.074Z,61.76
2022-09-28T12:14:20.345Z,62.10
2022-09-28T12:17:11.221Z,62.08
2022-09-28T12:19:49.449Z,62.29
2022-09-28T12:22:30.944Z,61.93
2022-09-28T12:25:01.952Z,61.65
2022-09-28T12:27:45.049Z,62.16
2022-09-28T12:30:20.345Z,62.01
2022-09-28T12:33:12.269Z,63.05
2022-09-28T12:35:59.162Z,61.55
2022-09-28T12:39:14.856Z,61.11
2022-09-28T12:41:59.725Z,61.22
2022-09-28T12:44:52.937Z,60.53
2022-09-28T12:48:17.220Z,61.00
2022-09-28T12:51:06.293Z,60.26
2022-09-28T12:54:01.927Z,60.81
2022-09-28T12:57:12.278Z,59.58
2022-09-28T13:00:04.498Z,60.70
2022-09-28T13:03:32.566Z,62.55
2022-09-28T13:06:32.591Z,63.17
2022-09-28T13:09:23.489Z,63.29
2022-09-28T13:12:14.718Z,63.62
2022-09-28T13:15:18.306Z,64.03
2022-09-28T13:18:07.587Z,65.76
2022-09-28T13:21:00.090Z,65.67
2022-09-28T13:23:41.292Z,67.58
2022-09-28T13:26:29.650Z,67.24
2022-09-28T13:29:14.189Z,69.33
2022-09-28T13:31:53.723Z,69.04
2022-09-28T13:34:27.705Z,69.38
2022-09-28T13:37:14.065Z,70.15
2022-09-28T13:39:44.794Z,70.56
2022-09-28T13:42:29.278Z,72.06
2022-09-28T13:45:02.756Z,71.49
2022-09-28T13:47:52.406Z,72.04
2022-09-28T13:50:53.320Z,71.20
2022-09-28T13:53:30.787Z,72.73
2022-09-28T13:56:42.145Z,72.29
2022-09-28T13:59:21.898Z,72.40
2022-09-28T14:02:27.462Z,72.89
2022-09-28T14:05:06.577Z,73.76
2022-09-28T14:07:34.369Z,72.20
2022-09-28T14:10:49.737Z,72.25
2022-09-28T14:13:45.444Z,73.46
2022-09-28T14:16:23.673Z,73.23
2022-09-28T14:18:58.597Z,74.16
2022-09-28T14:22:18.776Z,78.35
2022-09-28T14:25:15.164Z,80.88
2022-09-28T14:28:34.280Z,84.67
2022-09-28T14:31:14.154Z,84.57
2022-09-28T14:33:42.937Z,86.19
2022-09-28T14:36:46.321Z,87.14
2022-09-28T14:39:51.875Z,87.09
2022-09-28T14:42:23.974Z,88.90
2022-09-28T14:45:05.231Z,89.18
2022-09-28T14:47:44.106Z,87.90
2022-09-28T14:50:27.596Z,86.98
2022-09-28T14:53:05.046Z,87.76
2022-09-28T14:55:57.511Z,86.68
2022-09-28T14:58:29.885Z,88.32
2022-09-28T15:01:20.039Z,87.21
2022-09-28T15:03:53.259Z,86.96
2022-09-28T15:06:25.641Z,87.27
2022-09-28T15:08:53.341Z,87.06
2022-09-28T15:11:25.177Z,87.75
2022-09-28T15:14:07.246Z,85.81
2022-09-28T15:16:34.993Z,85.59
2022-09-28T15:19:35.299Z,87.93
2022-09-28T15:22:03.461Z,88.32
2022-09-28T15:24:34.733Z,87.70
2022-09-28T15:27:15.079Z,86.84
2022-09-28T15:29:58.452Z,88.68
2022-09-28T15:32:29.580Z,89.54
2022-09-28T15:35:11.682Z,88.89
2022-09-28T15:37:40.679Z,87.97
2022-09-28T15:40:17.288Z,89.03
2022-09-28T15:42:46.134Z,90.03
2022-09-28T15:45:13.957Z,88.89
2022-09-28T15:47:44.881Z,87.80
2022-09-28T15:50:24.274Z,89.60
2022-09-28T15:53:05.442Z,89.62
2022-09-28T15:55:42.327Z,89.22
2022-09-28T15:58:22.563Z,89.52
2022-09-28T16:01:25.936Z,88.86
2022-09-28T16:03:54.293Z,90.62
2022-09-28T16:06:22.446Z,88.64
2022-09-28T16:08:50.190Z,90.11
2022-09-28T16:11:30.037Z,90.07
2022-09-28T16:14:23.802Z,90.18
2022-09-28T16:16:53.181Z,90.78
2022-09-28T16:19:31.973Z,92.01
2022-09-28T16:22:06.424Z,92.47
2022-09-28T16:24:38.410Z,90.77
2022-09-28T16:27:25.229Z,90.52
2022-09-28T16:30:14.771Z,90.26
2022-09-28T16:32:56.494Z,90.54
2022-09-28T16:35:29.831Z,90.41
2022-09-28T16:38:03.530Z,90.39
2022-09-28T16:40:32.843Z,90.39
2022-09-28T16:43:05.509Z,90.02
2022-09-28T16:45:35.240Z,90.43
2022-09-28T16:48:04.286Z,90.99
2022-09-28T16:50:32.065Z,91.20
2022-09-28T16:53:35.873Z,92.03
2022-09-28T16:56:05.035Z,91.01
2022-09-28T16:58:33.685Z,90.70
2022-09-28T17:01:01.554Z,91.64
2022-09-28T17:03:29.763Z,92.60
2022-09-28T17:05:57.751Z,92.00
2022-09-28T17:08:25.855Z,91.90
2022-09-28T17:11:22.754Z,91.04
2022-09-28T17:13:49.917Z,91.80
2022-09-28T17:16:32.701Z,91.77
2022-09-28T17:19:18.976Z,92.13
2022-09-28T17:21:47.414Z,92.33
2022-09-28T17:24:15.444Z,91.37
2022-09-28T17:26:45.553Z,90.72
2022-09-28T17:29:14.946Z,92.29
2022-09-28T17:31:44.282Z,93.19
2022-09-28T17:34:16.780Z,92.72
2022-09-28T17:36:45.231Z,92.99
2022-09-28T17:39:19.108Z,92.88
2022-09-28T17:41:47.015Z,92.68
2022-09-28T17:44:15.945Z,92.89
2022-09-28T17:46:48.554Z,93.25
2022-09-28T17:49:18.767Z,93.20
2022-09-28T17:51:47.102Z,92.91
2022-09-28T17:54:16.924Z,93.21
2022-09-28T17:56:46.124Z,93.11
2022-09-28T17:59:18.932Z,93.20
2022-09-28T18:01:48.242Z,92.85
2022-09-28T18:04:33.758Z,91.97
2022-09-28T18:07:05.317Z,91.93
2022-09-28T18:09:33.098Z,91.81
2022-09-28T18:12:04.466Z,92.15
2022-09-28T18:14:32.497Z,92.00
2022-09-28T18:17:00.185Z,91.31
2022-09-28T18:19:31.920Z,91.44
2022-09-28T18:22:01.375Z,91.06
2022-09-28T18:24:29.858Z,91.61
2022-09-28T18:26:57.732Z,91.38
2022-09-28T18:29:26.711Z,91.29
2022-09-28T18:31:55.886Z,90.84
2022-09-28T18:34:23.695Z,90.78
2022-09-28T18:36:51.436Z,90.61
2022-09-28T18:39:19.282Z,90.87
2022-09-28T18:41:47.027Z,90.58
2022-09-28T18:44:14.856Z,90.52
2022-09-28T18:46:42.868Z,90.20
2022-09-28T18:49:11.106Z,90.85
2022-09-28T18:51:39.077Z,91.06
2022-09-28T18:54:07.643Z,91.66
2022-09-28T18:56:38.185Z,91.20
2022-09-28T18:59:11.903Z,91.41
2022-09-28T19:01:41.889Z,91.12
2022-09-28T19:04:11.389Z,90.97
2022-09-28T19:06:42.417Z,91.09
2022-09-28T19:09:10.915Z,91.03
2022-09-28T19:11:38.654Z,92.23
2022-09-28T19:14:06.710Z,90.52
2022-09-28T19:16:34.549Z,90.28
2022-09-28T19:19:03.233Z,91.34
2022-09-28T19:21:31.650Z,91.07
2022-09-28T19:24:03.981Z,90.94
2022-09-28T19:26:33.377Z,91.54
2022-09-28T19:29:02.779Z,91.50
2022-09-28T19:31:31.686Z,91.51
2022-09-28T19:33:59.597Z,91.37
2022-09-28T19:36:28.795Z,91.64
2022-09-28T19:39:02.926Z,91.96
2022-09-28T19:41:45.543Z,91.39
2022-09-28T19:44:29.856Z,91.09
2022-09-28T19:47:06.749Z,90.72
2022-09-28T19:49:38.988Z,91.01
2022-09-28T19:52:16.358Z,91.68
2022-09-28T19:54:55.663Z,91.38
2022-09-28T19:57:32.491Z,91.79
2022-09-28T20:00:03.427Z,91.28
2022-09-28T20:02:35.765Z,91.73
2022-09-28T20:05:03.784Z,91.87
2022-09-28T20:07:33.347Z,91.37
2022-09-28T20:10:01.118Z,91.64
2022-09-28T20:12:28.903Z,91.72
2022-09-28T20:14:56.596Z,91.66
2022-09-28T20:17:24.394Z,91.57
2022-09-28T20:19:52.540Z,92.34
2022-09-28T20:22:21.152Z,91.67
2022-09-28T20:24:49.059Z,91.59
2022-09-28T20:27:16.772Z,91.49
2022-09-28T20:29:44.460Z,92.05
2022-09-28T20:32:12.210Z,91.95
2022-09-28T20:34:39.947Z,91.75
2022-09-28T20:37:07.633Z,90.96
2022-09-28T20:39:35.479Z,91.10
2022-09-28T20:42:03.246Z,90.57
2022-09-28T20:44:31.275Z,91.31
2022-09-28T20:46:59.498Z,91.65
2022-09-28T20:49:28.176Z,92.08
2022-09-28T20:51:55.887Z,91.60
2022-09-28T20:54:23.707Z,90.91
2022-09-28T20:56:51.591Z,90.55
2022-09-28T20:59:22.793Z,91.21
2022-09-28T21:01:51.122Z,90.88
2022-09-28T21:04:19.735Z,91.39
2022-09-28T21:06:47.519Z,91.84
2022-09-28T21:09:15.233Z,91.45
2022-09-28T21:11:42.949Z,91.87
2022-09-28T21:14:10.884Z,92.42
2022-09-28T21:16:39.090Z,92.63
2022-09-28T21:19:06.974Z,92.44
2022-09-28T21:21:34.921Z,93.25
2022-09-28T21:24:03.492Z,93.00
2022-09-28T21:26:32.838Z,92.34
2022-09-28T21:29:06.812Z,92.14
2022-09-28T21:31:43.013Z,91.96
2022-09-28T21:34:20.511Z,91.77
2022-09-28T21:36:51.343Z,91.82
2022-09-28T21:39:20.103Z,92.09
2022-09-28T21:41:48.009Z,92.20
2022-09-28T21:44:15.749Z,92.33
2022-09-28T21:46:43.571Z,92.28
2022-09-28T21:49:12.631Z,92.40
2022-09-28T21:51:40.496Z,92.29
2022-09-28T21:54:08.585Z,92.06
2022-09-28T21:56:36.265Z,92.28
2022-09-28T21:59:04.051Z,92.03
2022-09-28T22:01:32.255Z,92.34
2022-09-28T22:04:00.244Z,92.21
2022-09-28T22:06:28.306Z,92.43
2022-09-28T22:08:57.311Z,92.19
2022-09-28T22:11:28.156Z,91.61
2022-09-28T22:13:59.919Z,92.13
2022-09-28T22:16:31.046Z,92.36
2022-09-28T22:18:59.880Z,92.48
2022-09-28T22:21:32.559Z,92.57
2022-09-28T22:24:04.103Z,91.80
2022-09-28T22:26:34.555Z,91.76
2022-09-28T22:29:06.793Z,91.72
2022-09-28T22:31:38.616Z,92.06
2022-09-28T22:34:07.280Z,92.32
2022-09-28T22:36:35.820Z,92.43
2022-09-28T22:39:04.673Z,92.26
2022-09-28T22:41:32.577Z,92.16
2022-09-28T22:44:00.626Z,92.43
2022-09-28T22:46:32.062Z,92.42
2022-09-28T22:49:00.452Z,92.36
2022-09-28T22:51:30.675Z,91.82
2022-09-28T22:53:58.888Z,91.46
2022-09-28T22:56:26.882Z,91.81
2022-09-28T22:58:54.905Z,91.94
2022-09-28T23:01:27.020Z,92.06
2022-09-28T23:03:57.196Z,92.04
2022-09-28T23:06:28.311Z,91.90
2022-09-28T23:08:56.924Z,91.56
2022-09-28T23:11:24.919Z,91.59
2022-09-28T23:13:55.846Z,91.40
2022-09-28T23:16:25.830Z,91.46
2022-09-28T23:18:55.273Z,91.58
2022-09-28T23:21:27.688Z,91.33
2022-09-28T23:23:59.617Z,92.04
2022-09-28T23:26:31.449Z,92.05
2022-09-28T23:28:59.794Z,91.79
2022-09-28T23:31:33.061Z,91.66
2022-09-28T23:34:04.463Z,91.78
2022-09-28T23:36:33.622Z,92.56
2022-09-28T23:39:01.653Z,92.75
2022-09-28T23:41:29.587Z,92.11
2022-09-28T23:43:57.389Z,91.62
2022-09-28T23:46:25.365Z,92.08
2022-09-28T23:48:53.341Z,92.44
2022-09-28T23:51:21.234Z,92.00
2022-09-28T23:53:49.122Z,91.90
2022-09-28T23:56:17.040Z,91.41
2022-09-28T23:58:44.972Z,91.89
